createdAt,value
2023-04-26T00:01:58.822Z,15.90
2023-04-26T00:04:25.877Z,17.90
2023-04-26T00:06:52.791Z,16.37
2023-04-26T00:09:19.691Z,14.77
2023-04-26T00:11:46.777Z,15.10
2023-04-26T00:14:13.748Z,25.03
2023-04-26T00:16:40.634Z,13.63
2023-04-26T00:19:07.421Z,14.00
2023-04-26T00:21:35.204Z,22.53
2023-04-26T00:24:01.943Z,19.30
2023-04-26T00:26:29.880Z,11.87
2023-04-26T00:28:56.671Z,13.50
2023-04-26T00:31:23.496Z,16.10
2023-04-26T00:33:51.433Z,13.20
2023-04-26T00:36:19.448Z,12.77
2023-04-26T00:38:46.968Z,10.90
2023-04-26T00:41:14.577Z,12.80
2023-04-26T00:43:41.482Z,13.90
2023-04-26T00:46:09.866Z,15.68
2023-04-26T00:48:37.425Z,14.80
2023-04-26T00:51:05.853Z,17.87
2023-04-26T00:53:34.291Z,11.90
2023-04-26T00:56:01.369Z,17.97
2023-04-26T00:58:28.648Z,19.90
2023-04-26T01:00:56.138Z,23.10
2023-04-26T01:03:23.115Z,15.10
2023-04-26T01:05:50.503Z,15.13
2023-04-26T01:08:20.781Z,18.15
2023-04-26T01:10:50.873Z,14.82
2023-04-26T01:13:17.822Z,15.95
2023-04-26T01:15:48.293Z,18.08
2023-04-26T01:18:15.424Z,17.27
2023-04-26T01:20:43.290Z,18.77
2023-04-26T01:23:11.541Z,19.48
2023-04-26T01:25:38.517Z,16.90
2023-04-26T01:28:05.534Z,24.52
2023-04-26T01:30:32.224Z,20.30
2023-04-26T01:32:59.421Z,20.23
2023-04-26T01:35:26.342Z,24.13
2023-04-26T01:37:53.130Z,25.52
2023-04-26T01:40:19.946Z,19.45
2023-04-26T01:42:46.707Z,19.88
2023-04-26T01:45:13.433Z,21.02
2023-04-26T01:47:40.404Z,17.58
2023-04-26T01:50:08.045Z,17.55
2023-04-26T01:52:34.789Z,28.85
2023-04-26T01:55:01.581Z,20.30
2023-04-26T01:57:28.244Z,18.77
2023-04-26T01:59:56.726Z,16.23
2023-04-26T02:02:23.419Z,17.25
2023-04-26T02:04:50.281Z,18.83
2023-04-26T02:07:17.086Z,21.13
2023-04-26T02:09:44.218Z,17.05
2023-04-26T02:12:10.960Z,19.33
2023-04-26T02:14:37.649Z,18.77
2023-04-26T02:17:04.853Z,17.35
2023-04-26T02:19:31.669Z,20.27
2023-04-26T02:21:58.562Z,16.50
2023-04-26T02:24:25.865Z,20.08
2023-04-26T02:26:54.628Z,21.10
2023-04-26T02:29:35.973Z,14.82
2023-04-26T02:32:08.659Z,13.55
2023-04-26T02:34:36.287Z,16.63
2023-04-26T02:37:03.050Z,15.18
2023-04-26T02:39:29.855Z,17.42
2023-04-26T02:41:57.500Z,15.07
2023-04-26T02:44:24.187Z,13.57
2023-04-26T02:46:51.144Z,14.63
2023-04-26T02:49:17.981Z,16.55
2023-04-26T02:51:44.678Z,19.48
2023-04-26T02:54:11.384Z,17.55
2023-04-26T02:56:38.052Z,14.45
2023-04-26T02:59:04.753Z,17.70
2023-04-26T03:01:31.520Z,16.38
2023-04-26T03:03:58.437Z,16.05
2023-04-26T03:06:25.296Z,16.23
2023-04-26T03:08:52.201Z,15.40
2023-04-26T03:11:19.212Z,19.10
2023-04-26T03:13:45.932Z,17.95
2023-04-26T03:16:12.769Z,17.17
2023-04-26T03:18:39.472Z,20.90
2023-04-26T03:21:06.598Z,17.92
2023-04-26T03:23:34.105Z,22.65
2023-04-26T03:26:00.849Z,24.83
2023-04-26T03:28:27.622Z,16.02
2023-04-26T03:30:56.752Z,16.80
2023-04-26T03:33:23.593Z,17.00
2023-04-26T03:35:51.552Z,19.90
2023-04-26T03:38:18.381Z,16.20
2023-04-26T03:40:45.097Z,19.88
2023-04-26T03:43:11.765Z,24.27
2023-04-26T03:45:38.501Z,21.77
2023-04-26T03:48:05.618Z,21.75
2023-04-26T03:50:32.594Z,19.98
2023-04-26T03:52:59.288Z,22.23
2023-04-26T03:55:26.212Z,24.63
2023-04-26T03:57:53.930Z,18.50
2023-04-26T04:00:21.390Z,22.55
2023-04-26T04:02:48.382Z,20.75
2023-04-26T04:05:15.503Z,20.83
2023-04-26T04:07:42.844Z,25.58
2023-04-26T04:10:10.892Z,21.98
2023-04-26T04:12:37.963Z,25.15
2023-04-26T04:15:05.028Z,18.92
2023-04-26T04:17:31.838Z,25.88
2023-04-26T04:19:58.706Z,19.45
2023-04-26T04:22:25.452Z,21.38
2023-04-26T04:24:52.266Z,23.25
2023-04-26T04:27:18.972Z,18.65
2023-04-26T04:29:46.230Z,20.05
2023-04-26T04:32:15.006Z,27.27
2023-04-26T04:34:41.800Z,21.27
2023-04-26T04:37:08.840Z,20.80
2023-04-26T04:39:35.666Z,19.35
2023-04-26T04:42:02.419Z,22.30
2023-04-26T04:44:29.380Z,20.40
2023-04-26T04:46:56.749Z,20.25
2023-04-26T04:49:24.955Z,18.60
2023-04-26T04:51:51.869Z,21.92
2023-04-26T04:54:19.210Z,19.60
2023-04-26T04:56:45.960Z,20.40
2023-04-26T04:59:12.791Z,21.35
2023-04-26T05:01:39.586Z,17.98
2023-04-26T05:04:07.586Z,16.58
2023-04-26T05:06:34.674Z,20.92
2023-04-26T05:09:01.731Z,17.70
2023-04-26T05:11:28.662Z,16.27
2023-04-26T05:13:55.652Z,25.63
2023-04-26T05:16:22.809Z,21.40
2023-04-26T05:18:49.739Z,24.17
2023-04-26T05:21:17.045Z,23.98
2023-04-26T05:23:43.879Z,25.02
2023-04-26T05:26:15.264Z,22.45
2023-04-26T05:28:42.285Z,23.90
2023-04-26T05:31:11.382Z,27.20
2023-04-26T05:33:38.523Z,28.65
2023-04-26T05:36:05.801Z,27.83
2023-04-26T05:38:32.590Z,25.73
2023-04-26T05:40:59.268Z,28.42
2023-04-26T05:43:26.392Z,28.98
2023-04-26T05:45:54.378Z,22.65
2023-04-26T05:48:22.338Z,31.10
2023-04-26T05:50:49.777Z,25.58
2023-04-26T05:53:16.695Z,31.00
2023-04-26T05:55:43.759Z,26.80
2023-04-26T05:58:10.767Z,21.70
2023-04-26T06:00:38.685Z,20.30
2023-04-26T06:03:05.992Z,25.00
2023-04-26T06:05:33.254Z,24.30
2023-04-26T06:08:01.479Z,23.92
2023-04-26T06:10:28.325Z,23.88
2023-04-26T06:12:55.141Z,31.05
2023-04-26T06:15:21.965Z,28.92
2023-04-26T06:17:48.958Z,24.60
2023-04-26T06:20:16.330Z,24.98
2023-04-26T06:22:43.224Z,21.50
2023-04-26T06:25:10.191Z,21.80
2023-04-26T06:27:39.012Z,22.10
2023-04-26T06:30:07.828Z,22.63
2023-04-26T06:32:34.740Z,20.00
2023-04-26T06:35:01.719Z,31.00
2023-04-26T06:37:28.621Z,23.10
2023-04-26T06:39:55.496Z,23.08
2023-04-26T06:42:22.476Z,31.88
2023-04-26T06:44:49.333Z,20.53
2023-04-26T06:47:16.059Z,20.73
2023-04-26T06:49:42.793Z,19.37
2023-04-26T06:52:09.816Z,16.73
2023-04-26T06:54:46.281Z,21.10
2023-04-26T06:57:20.698Z,17.33
2023-04-26T06:59:47.470Z,15.30
2023-04-26T07:02:15.824Z,21.10
2023-04-26T07:04:43.302Z,18.53
2023-04-26T07:07:13.019Z,18.13
2023-04-26T07:09:41.079Z,12.40
2023-04-26T07:12:08.135Z,19.70
2023-04-26T07:14:38.550Z,10.37
2023-04-26T07:17:06.507Z,13.97
2023-04-26T07:19:33.505Z,11.07
2023-04-26T07:22:00.186Z,12.90
2023-04-26T07:24:27.152Z,13.20
2023-04-26T07:26:54.094Z,11.20
2023-04-26T07:29:21.334Z,19.27
2023-04-26T07:31:48.699Z,11.20
2023-04-26T07:34:15.479Z,11.40
2023-04-26T07:36:42.168Z,12.00
2023-04-26T07:39:10.727Z,7.77
2023-04-26T07:41:37.785Z,9.10
2023-04-26T07:44:04.708Z,8.90
2023-04-26T07:46:33.786Z,9.20
2023-04-26T07:49:00.828Z,7.07
2023-04-26T07:51:27.929Z,9.93
2023-04-26T07:53:55.876Z,9.77
2023-04-26T07:56:24.307Z,8.07
2023-04-26T07:58:51.712Z,5.80
2023-04-26T08:01:18.826Z,4.83
2023-04-26T08:03:46.017Z,15.17
2023-04-26T08:06:13.086Z,10.30
2023-04-26T08:08:44.808Z,10.13
2023-04-26T08:11:12.031Z,9.97
2023-04-26T08:13:38.828Z,10.27
2023-04-26T08:16:06.469Z,7.37
2023-04-26T08:18:33.640Z,9.47
2023-04-26T08:21:00.530Z,8.60
2023-04-26T08:23:28.376Z,8.63
2023-04-26T08:25:55.162Z,7.80
2023-04-26T08:28:21.947Z,6.17
2023-04-26T08:30:48.803Z,15.03
2023-04-26T08:33:17.844Z,5.17
2023-04-26T08:35:44.869Z,6.63
2023-04-26T08:38:11.659Z,8.80
2023-04-26T08:40:38.617Z,9.17
2023-04-26T08:43:05.722Z,7.57
2023-04-26T08:45:35.168Z,6.53
2023-04-26T08:48:14.781Z,5.40
2023-04-26T08:50:44.283Z,6.10
2023-04-26T08:53:15.793Z,14.03
2023-04-26T08:55:47.448Z,10.10
2023-04-26T08:58:14.820Z,6.90
2023-04-26T09:00:43.987Z,16.30
2023-04-26T09:03:11.270Z,7.63
2023-04-26T09:05:43.946Z,6.50
2023-04-26T09:08:16.185Z,9.13
2023-04-26T09:10:43.123Z,9.33
2023-04-26T09:13:10.074Z,6.47
2023-04-26T09:15:37.009Z,6.67
2023-04-26T09:18:18.274Z,5.70
2023-04-26T09:20:45.907Z,9.07
2023-04-26T09:23:14.098Z,2.97
2023-04-26T09:25:41.404Z,7.47
2023-04-26T09:28:28.422Z,5.00
2023-04-26T09:30:55.178Z,7.70
2023-04-26T09:33:22.004Z,6.13
2023-04-26T09:35:48.853Z,6.60
2023-04-26T09:38:17.784Z,6.07
2023-04-26T09:40:46.601Z,3.90
2023-04-26T09:43:18.264Z,6.80
2023-04-26T09:45:51.435Z,6.47
2023-04-26T09:48:30.858Z,3.83
2023-04-26T09:51:03.491Z,5.10
2023-04-26T09:53:38.729Z,7.47
2023-04-26T09:56:16.183Z,7.60
2023-04-26T09:59:02.523Z,7.03
2023-04-26T10:01:30.368Z,8.47
2023-04-26T10:03:58.352Z,3.53
2023-04-26T10:06:25.717Z,10.07
2023-04-26T10:08:52.750Z,7.07
2023-04-26T10:11:21.631Z,6.13
2023-04-26T10:13:51.476Z,9.03
2023-04-26T10:16:19.514Z,8.20
2023-04-26T10:18:46.364Z,3.47
2023-04-26T10:21:20.348Z,3.27
2023-04-26T10:23:49.368Z,4.87
2023-04-26T10:26:51.644Z,8.67
2023-04-26T10:29:19.528Z,6.20
2023-04-26T10:32:04.474Z,9.10
2023-04-26T10:34:33.027Z,7.50
2023-04-26T10:37:17.210Z,8.97
2023-04-26T10:39:47.193Z,4.40
2023-04-26T10:42:30.985Z,8.37
2023-04-26T10:44:59.207Z,8.70
2023-04-26T10:47:38.881Z,7.30
2023-04-26T10:50:10.580Z,5.67
2023-04-26T10:52:58.576Z,4.90
2023-04-26T10:55:42.384Z,4.77
2023-04-26T10:58:40.901Z,6.73
2023-04-26T11:01:17.518Z,6.47
2023-04-26T11:04:05.050Z,3.00
2023-04-26T11:06:51.274Z,4.03
2023-04-26T11:09:36.272Z,3.93
2023-04-26T11:12:13.505Z,8.87
2023-04-26T11:14:42.276Z,3.20
2023-04-26T11:17:09.952Z,5.73
2023-04-26T11:19:36.964Z,7.40
2023-04-26T11:22:07.364Z,5.23
2023-04-26T11:24:39.090Z,3.93
2023-04-26T11:27:10.488Z,3.90
2023-04-26T11:29:37.547Z,4.03
2023-04-26T11:32:04.741Z,6.37
2023-04-26T11:34:35.703Z,5.70
2023-04-26T11:37:04.761Z,5.00
2023-04-26T11:39:32.741Z,4.00
2023-04-26T11:42:09.994Z,3.10
2023-04-26T11:44:38.196Z,3.30
2023-04-26T11:47:06.637Z,5.40
2023-04-26T11:49:36.092Z,5.17
2023-04-26T11:52:04.947Z,6.37
2023-04-26T11:54:33.622Z,3.33
2023-04-26T11:57:01.000Z,6.60
2023-04-26T11:59:30.169Z,3.67
2023-04-26T12:01:57.823Z,5.10
2023-04-26T12:04:31.446Z,3.53
2023-04-26T12:06:58.842Z,4.37
2023-04-26T12:09:31.726Z,9.07
2023-04-26T12:11:59.292Z,3.70
2023-04-26T12:14:39.637Z,3.03
2023-04-26T12:17:07.929Z,2.53
2023-04-26T12:19:36.788Z,5.00
2023-04-26T12:22:04.424Z,6.40
2023-04-26T12:24:36.955Z,7.40
2023-04-26T12:27:06.631Z,3.10
2023-04-26T12:29:33.973Z,7.67
2023-04-26T12:32:01.435Z,7.23
2023-04-26T12:34:28.772Z,3.00
2023-04-26T12:36:55.865Z,4.03
2023-04-26T12:39:23.013Z,10.53
2023-04-26T12:41:49.972Z,6.07
2023-04-26T12:44:17.574Z,5.97
2023-04-26T12:46:45.924Z,2.47
2023-04-26T12:49:13.148Z,5.10
2023-04-26T12:51:39.921Z,6.87
2023-04-26T12:54:06.656Z,3.83
2023-04-26T12:56:35.120Z,7.93
2023-04-26T12:59:02.137Z,5.67
2023-04-26T13:01:29.006Z,6.23
2023-04-26T13:03:56.938Z,7.90
2023-04-26T13:06:24.084Z,5.10
2023-04-26T13:08:50.849Z,3.87
2023-04-26T13:11:18.153Z,5.13
2023-04-26T13:13:45.240Z,3.63
2023-04-26T13:16:13.142Z,5.73
2023-04-26T13:18:40.704Z,4.37
2023-04-26T13:21:07.855Z,4.47
2023-04-26T13:23:34.704Z,3.20
2023-04-26T13:26:01.674Z,11.83
2023-04-26T13:28:28.447Z,7.63
2023-04-26T13:30:56.033Z,8.03
2023-04-26T13:33:23.037Z,7.73
2023-04-26T13:35:49.887Z,4.53
2023-04-26T13:38:17.176Z,9.50
2023-04-26T13:40:44.677Z,4.80
2023-04-26T13:43:11.578Z,5.20
2023-04-26T13:45:38.851Z,4.80
2023-04-26T13:48:06.130Z,6.20
2023-04-26T13:50:32.993Z,3.63
2023-04-26T13:53:00.151Z,4.17
2023-04-26T13:55:26.969Z,6.13
2023-04-26T13:57:53.776Z,4.87
2023-04-26T14:00:20.938Z,7.10
2023-04-26T14:02:48.554Z,5.33
2023-04-26T14:05:16.729Z,2.37
2023-04-26T14:07:43.723Z,5.70
2023-04-26T14:10:10.744Z,7.43
2023-04-26T14:12:37.516Z,6.33
2023-04-26T14:15:06.159Z,3.20
2023-04-26T14:17:33.537Z,5.93
2023-04-26T14:20:00.587Z,8.00
2023-04-26T14:22:27.403Z,4.97
2023-04-26T14:24:54.207Z,4.57
2023-04-26T14:27:20.960Z,3.30
2023-04-26T14:29:47.886Z,3.10
2023-04-26T14:32:14.927Z,5.00
2023-04-26T14:34:42.656Z,6.73
2023-04-26T14:37:09.539Z,6.90
2023-04-26T14:39:37.151Z,3.87
2023-04-26T14:42:04.135Z,4.43
2023-04-26T14:44:30.901Z,4.50
2023-04-26T14:46:57.697Z,6.33
2023-04-26T14:49:24.611Z,3.03
2023-04-26T14:51:53.563Z,4.63
2023-04-26T14:54:21.061Z,4.97
2023-04-26T14:56:48.381Z,2.93
2023-04-26T14:59:15.217Z,4.37
2023-04-26T15:01:42.081Z,6.23
2023-04-26T15:04:09.003Z,6.77
2023-04-26T15:06:36.124Z,6.23
2023-04-26T15:09:04.025Z,6.07
2023-04-26T15:11:30.889Z,3.00
2023-04-26T15:13:57.616Z,3.93
2023-04-26T15:16:24.475Z,4.50
2023-04-26T15:18:51.561Z,5.40
2023-04-26T15:21:19.720Z,4.40
2023-04-26T15:23:46.699Z,5.20
2023-04-26T15:26:14.056Z,5.00
2023-04-26T15:28:40.878Z,3.97
2023-04-26T15:31:11.391Z,8.37
2023-04-26T15:33:38.363Z,7.33
2023-04-26T15:36:05.722Z,7.27
2023-04-26T15:38:34.890Z,5.00
2023-04-26T15:41:01.775Z,6.80
2023-04-26T15:43:28.637Z,3.63
2023-04-26T15:45:55.665Z,7.27
2023-04-26T15:48:22.512Z,7.80
2023-04-26T15:50:50.631Z,8.00
2023-04-26T15:53:17.822Z,6.60
2023-04-26T15:55:44.802Z,7.23
2023-04-26T15:58:11.843Z,7.77
2023-04-26T16:00:38.794Z,9.33
2023-04-26T16:03:05.829Z,3.60
2023-04-26T16:05:32.909Z,3.80
2023-04-26T16:07:59.789Z,5.20
2023-04-26T16:10:27.056Z,4.83
2023-04-26T16:12:53.835Z,17.13
2023-04-26T16:15:20.696Z,7.47
2023-04-26T16:17:47.540Z,4.80
2023-04-26T16:20:15.207Z,5.17
2023-04-26T16:22:45.088Z,5.80
2023-04-26T16:25:12.156Z,2.40
2023-04-26T16:27:38.919Z,4.63
2023-04-26T16:30:06.244Z,6.40
2023-04-26T16:32:34.081Z,6.23
2023-04-26T16:35:01.047Z,6.53
2023-04-26T16:37:27.877Z,4.50
2023-04-26T16:39:55.788Z,9.87
2023-04-26T16:42:22.854Z,9.93
2023-04-26T16:44:49.606Z,5.60
2023-04-26T16:47:16.327Z,4.27
2023-04-26T16:49:43.129Z,9.33
2023-04-26T16:52:09.867Z,7.40
2023-04-26T16:54:36.618Z,10.57
2023-04-26T16:57:04.421Z,7.00
2023-04-26T16:59:31.318Z,5.60
2023-04-26T17:01:58.219Z,5.07
2023-04-26T17:04:26.324Z,3.90
2023-04-26T17:06:53.853Z,4.33
2023-04-26T17:09:20.707Z,5.57
2023-04-26T17:11:47.467Z,4.90
2023-04-26T17:14:14.236Z,5.60
2023-04-26T17:16:41.158Z,4.00
2023-04-26T17:19:08.111Z,9.00
2023-04-26T17:21:34.901Z,4.80
2023-04-26T17:24:01.756Z,3.40
2023-04-26T17:26:28.539Z,4.30
2023-04-26T17:28:56.305Z,4.97
2023-04-26T17:31:23.174Z,4.03
2023-04-26T17:33:50.234Z,4.80
2023-04-26T17:36:17.800Z,3.80
2023-04-26T17:38:44.606Z,6.70
2023-04-26T17:41:13.428Z,2.50
2023-04-26T17:43:40.383Z,6.60
2023-04-26T17:46:07.154Z,4.13
2023-04-26T17:48:33.943Z,6.20
2023-04-26T17:51:00.840Z,3.57
2023-04-26T17:53:27.855Z,4.60
2023-04-26T17:55:55.195Z,3.03
2023-04-26T17:58:21.963Z,5.97
2023-04-26T18:00:49.122Z,3.70
2023-04-26T18:03:16.034Z,5.40
2023-04-26T18:05:42.887Z,6.80
2023-04-26T18:08:09.755Z,3.87
2023-04-26T18:10:36.485Z,4.73
2023-04-26T18:13:03.204Z,4.23
2023-04-26T18:15:29.990Z,7.17
2023-04-26T18:17:56.789Z,3.57
2023-04-26T18:20:23.655Z,8.63
2023-04-26T18:22:50.579Z,5.10
2023-04-26T18:25:17.312Z,5.83
2023-04-26T18:27:44.139Z,3.00
2023-04-26T18:30:12.747Z,4.43
2023-04-26T18:32:39.602Z,2.07
2023-04-26T18:35:07.701Z,10.70
2023-04-26T18:37:34.551Z,2.30
2023-04-26T18:40:01.229Z,5.77
2023-04-26T18:42:28.037Z,3.00
2023-04-26T18:44:55.110Z,3.20
2023-04-26T18:47:21.945Z,2.80
2023-04-26T18:49:48.683Z,6.60
2023-04-26T18:52:15.503Z,3.40
2023-04-26T18:54:42.242Z,5.33
2023-04-26T18:57:10.686Z,4.90
2023-04-26T18:59:37.584Z,4.53
2023-04-26T19:02:05.307Z,5.90
2023-04-26T19:04:32.453Z,5.90
2023-04-26T19:07:00.751Z,6.50
2023-04-26T19:09:27.483Z,9.43
2023-04-26T19:11:54.266Z,6.63
2023-04-26T19:14:21.001Z,11.33
2023-04-26T19:16:48.037Z,6.17
2023-04-26T19:19:14.886Z,8.63
2023-04-26T19:21:41.863Z,10.73
2023-04-26T19:24:08.838Z,9.00
2023-04-26T19:26:37.328Z,9.10
2023-04-26T19:29:06.197Z,14.73
2023-04-26T19:31:33.920Z,6.47
2023-04-26T19:34:00.823Z,6.17
2023-04-26T19:36:27.572Z,4.40
2023-04-26T19:38:54.400Z,4.63
2023-04-26T19:41:21.522Z,4.33
2023-04-26T19:43:48.284Z,5.30
2023-04-26T19:46:15.499Z,10.40
2023-04-26T19:48:42.599Z,8.87
2023-04-26T19:51:15.361Z,11.07
2023-04-26T19:53:42.125Z,4.80
2023-04-26T19:56:10.900Z,6.67
2023-04-26T19:58:38.773Z,5.93
2023-04-26T20:01:05.923Z,4.03
2023-04-26T20:03:33.176Z,3.10
2023-04-26T20:06:00.175Z,4.77
2023-04-26T20:08:26.951Z,4.13
2023-04-26T20:10:53.684Z,3.60
2023-04-26T20:13:20.404Z,5.90
2023-04-26T20:15:47.179Z,5.90
2023-04-26T20:18:13.872Z,3.73
2023-04-26T20:20:40.651Z,5.00
2023-04-26T20:23:07.832Z,9.10
2023-04-26T20:25:34.955Z,4.20
2023-04-26T20:28:03.632Z,5.00
2023-04-26T20:30:33.670Z,4.73
2023-04-26T20:33:00.779Z,9.50
2023-04-26T20:35:27.673Z,14.70
2023-04-26T20:37:54.425Z,8.87
2023-04-26T20:40:22.069Z,7.93
2023-04-26T20:42:48.887Z,2.90
2023-04-26T20:45:16.611Z,4.50
2023-04-26T20:47:43.785Z,7.73
2023-04-26T20:50:11.001Z,4.60
2023-04-26T20:52:37.913Z,6.10
2023-04-26T20:55:05.276Z,13.03
2023-04-26T20:57:31.962Z,4.10
2023-04-26T20:59:58.731Z,3.27
2023-04-26T21:02:25.571Z,6.63
2023-04-26T21:04:52.627Z,4.43
2023-04-26T21:07:19.509Z,4.40
2023-04-26T21:09:46.440Z,5.70
2023-04-26T21:12:13.159Z,7.43
2023-04-26T21:14:39.904Z,4.77
2023-04-26T21:17:06.674Z,5.23
2023-04-26T21:19:33.438Z,6.53
2023-04-26T21:22:00.477Z,4.20
2023-04-26T21:24:27.331Z,3.67
2023-04-26T21:26:54.125Z,3.10
2023-04-26T21:29:20.945Z,3.10
2023-04-26T21:31:47.738Z,4.93
2023-04-26T21:34:14.585Z,10.13
2023-04-26T21:36:41.348Z,4.57
2023-04-26T21:39:09.276Z,5.73
2023-04-26T21:41:36.257Z,4.93
2023-04-26T21:44:02.929Z,2.90
2023-04-26T21:46:29.719Z,6.30
2023-04-26T21:48:56.733Z,10.33
2023-04-26T21:51:23.593Z,3.80
2023-04-26T21:53:50.526Z,3.17
2023-04-26T21:56:17.219Z,4.87
2023-04-26T21:58:43.936Z,4.33
2023-04-26T22:01:13.296Z,9.77
2023-04-26T22:03:40.703Z,3.80
2023-04-26T22:06:08.534Z,6.63
2023-04-26T22:08:35.888Z,5.07
2023-04-26T22:11:03.136Z,6.30
2023-04-26T22:13:30.821Z,5.90
2023-04-26T22:15:57.646Z,9.53
2023-04-26T22:18:25.913Z,6.73
2023-04-26T22:20:53.471Z,6.63
2023-04-26T22:23:20.404Z,3.23
2023-04-26T22:25:47.142Z,3.90
2023-04-26T22:28:13.944Z,7.20
2023-04-26T22:30:40.743Z,6.23
2023-04-26T22:33:07.582Z,7.73
2023-04-26T22:35:35.008Z,3.77
2023-04-26T22:38:01.762Z,5.93
2023-04-26T22:40:28.575Z,6.90
2023-04-26T22:42:55.572Z,4.80
2023-04-26T22:45:22.841Z,6.10
2023-04-26T22:47:49.805Z,6.30
2023-04-26T22:50:16.608Z,6.00
2023-04-26T22:52:43.376Z,6.70
2023-04-26T22:55:10.271Z,5.10
2023-04-26T22:57:37.509Z,6.83
2023-04-26T23:00:05.730Z,4.30
2023-04-26T23:02:32.892Z,3.93
2023-04-26T23:04:59.822Z,3.13
2023-04-26T23:07:26.813Z,6.10
2023-04-26T23:09:53.977Z,4.93
2023-04-26T23:12:20.778Z,5.47
2023-04-26T23:14:48.721Z,3.63
2023-04-26T23:17:15.692Z,5.43
2023-04-26T23:19:42.745Z,4.47
2023-04-26T23:22:09.539Z,6.00
2023-04-26T23:24:36.417Z,4.13
2023-04-26T23:27:03.807Z,3.50
2023-04-26T23:29:30.894Z,4.70
2023-04-26T23:31:57.636Z,4.27
2023-04-26T23:34:24.511Z,5.47
2023-04-26T23:36:51.244Z,3.83
2023-04-26T23:39:18.202Z,5.60
2023-04-26T23:41:45.209Z,3.40
2023-04-26T23:44:11.990Z,4.47
2023-04-26T23:46:38.771Z,4.57
2023-04-26T23:49:05.615Z,2.83
2023-04-26T23:51:32.465Z,8.53
2023-04-26T23:53:59.250Z,4.10
2023-04-26T23:56:26.124Z,7.47
2023-04-26T23:58:52.920Z,5.30
